sensor_id;sensor_type;location;lat;lon;timestamp;P1;durP1;ratioP1;P2;durP2;ratioP2
73382;SDS011;61600;48.126;11.542;2023-12-20T00:00:14;2.35;;;1.48;;
73382;SDS011;61600;48.126;11.542;2023-12-20T00:02:40;4.65;;;2.05;;
73382;SDS011;61600;48.126;11.542;2023-12-20T00:05:10;2.53;;;1.25;;
73382;SDS011;61600;48.126;11.542;2023-12-20T00:07:36;3.42;;;1.90;;
73382;SDS011;61600;48.126;11.542;2023-12-20T00:10:01;5.32;;;1.73;;
73382;SDS011;61600;48.126;11.542;2023-12-20T00:12:28;3.83;;;1.50;;
73382;SDS011;61600;48.126;11.542;2023-12-20T00:14:53;5.13;;;1.70;;
73382;SDS011;61600;48.126;11.542;2023-12-20T00:17:19;2.65;;;1.40;;
73382;SDS011;61600;48.126;11.542;2023-12-20T00:19:46;4.90;;;1.58;;
73382;SDS011;61600;48.126;11.542;2023-12-20T00:22:11;2.53;;;1.33;;
73382;SDS011;61600;48.126;11.542;2023-12-20T00:24:37;4.03;;;2.00;;
73382;SDS011;61600;48.126;11.542;2023-12-20T00:27:03;4.05;;;2.03;;
73382;SDS011;61600;48.126;11.542;2023-12-20T00:29:29;2.42;;;1.30;;
73382;SDS011;61600;48.126;11.542;2023-12-20T00:31:54;3.70;;;1.80;;
73382;SDS011;61600;48.126;11.542;2023-12-20T00:34:20;3.63;;;1.65;;
73382;SDS011;61600;48.126;11.542;2023-12-20T00:36:46;3.53;;;1.77;;
73382;SDS011;61600;48.126;11.542;2023-12-20T00:39:12;4.07;;;1.40;;
73382;SDS011;61600;48.126;11.542;2023-12-20T00:41:38;3.35;;;1.42;;
73382;SDS011;61600;48.126;11.542;2023-12-20T00:44:05;3.60;;;1.55;;
73382;SDS011;61600;48.126;11.542;2023-12-20T00:46:31;3.45;;;1.38;;
73382;SDS011;61600;48.126;11.542;2023-12-20T00:48:56;3.40;;;1.50;;
73382;SDS011;61600;48.126;11.542;2023-12-20T00:51:22;2.35;;;1.20;;
73382;SDS011;61600;48.126;11.542;2023-12-20T00:53:49;3.58;;;1.25;;
73382;SDS011;61600;48.126;11.542;2023-12-20T00:56:15;3.63;;;1.33;;
73382;SDS011;61600;48.126;11.542;2023-12-20T00:58:41;4.25;;;1.30;;
73382;SDS011;61600;48.126;11.542;2023-12-20T01:01:08;3.00;;;1.25;;
73382;SDS011;61600;48.126;11.542;2023-12-20T01:03:34;2.97;;;0.90;;
73382;SDS011;61600;48.126;11.542;2023-12-20T01:05:59;1.63;;;0.90;;
73382;SDS011;61600;48.126;11.542;2023-12-20T01:08:26;3.10;;;1.30;;
73382;SDS011;61600;48.126;11.542;2023-12-20T01:10:51;3.67;;;1.30;;
73382;SDS011;61600;48.126;11.542;2023-12-20T01:13:17;3.05;;;1.08;;
73382;SDS011;61600;48.126;11.542;2023-12-20T01:15:43;2.40;;;0.93;;
73382;SDS011;61600;48.126;11.542;2023-12-20T01:18:09;4.00;;;1.17;;
73382;SDS011;61600;48.126;11.542;2023-12-20T01:20:35;3.25;;;1.48;;
73382;SDS011;61600;48.126;11.542;2023-12-20T01:23:01;5.18;;;1.15;;
73382;SDS011;61600;48.126;11.542;2023-12-20T01:25:27;2.45;;;1.15;;
73382;SDS011;61600;48.126;11.542;2023-12-20T01:27:53;2.42;;;1.33;;
73382;SDS011;61600;48.126;11.542;2023-12-20T01:30:19;3.03;;;1.25;;
73382;SDS011;61600;48.126;11.542;2023-12-20T01:32:46;3.53;;;1.15;;
73382;SDS011;61600;48.126;11.542;2023-12-20T01:35:35;1.80;;;0.90;;
73382;SDS011;61600;48.126;11.542;2023-12-20T01:38:02;2.35;;;1.20;;
73382;SDS011;61600;48.126;11.542;2023-12-20T01:40:28;1.23;;;0.90;;
73382;SDS011;61600;48.126;11.542;2023-12-20T01:43:01;1.52;;;0.80;;
73382;SDS011;61600;48.126;11.542;2023-12-20T01:45:28;2.10;;;0.93;;
73382;SDS011;61600;48.126;11.542;2023-12-20T01:47:54;1.67;;;0.75;;
73382;SDS011;61600;48.126;11.542;2023-12-20T01:50:23;1.75;;;1.00;;
73382;SDS011;61600;48.126;11.542;2023-12-20T01:52:49;2.25;;;0.90;;
73382;SDS011;61600;48.126;11.542;2023-12-20T01:55:18;1.65;;;0.82;;
73382;SDS011;61600;48.126;11.542;2023-12-20T01:57:45;1.40;;;0.82;;
73382;SDS011;61600;48.126;11.542;2023-12-20T02:00:12;2.10;;;0.98;;
73382;SDS011;61600;48.126;11.542;2023-12-20T02:02:40;2.80;;;1.35;;
73382;SDS011;61600;48.126;11.542;2023-12-20T02:05:07;3.10;;;0.80;;
73382;SDS011;61600;48.126;11.542;2023-12-20T02:07:34;2.17;;;1.20;;
73382;SDS011;61600;48.126;11.542;2023-12-20T02:10:00;3.45;;;1.00;;
73382;SDS011;61600;48.126;11.542;2023-12-20T02:12:26;1.40;;;0.73;;
73382;SDS011;61600;48.126;11.542;2023-12-20T02:14:53;1.10;;;0.60;;
73382;SDS011;61600;48.126;11.542;2023-12-20T02:17:19;1.42;;;0.55;;
73382;SDS011;61600;48.126;11.542;2023-12-20T02:19:45;0.82;;;0.50;;
73382;SDS011;61600;48.126;11.542;2023-12-20T02:22:12;1.23;;;0.63;;
73382;SDS011;61600;48.126;11.542;2023-12-20T02:24:39;1.50;;;0.65;;
73382;SDS011;61600;48.126;11.542;2023-12-20T02:27:05;1.55;;;0.73;;
73382;SDS011;61600;48.126;11.542;2023-12-20T02:31:58;1.08;;;0.40;;
73382;SDS011;61600;48.126;11.542;2023-12-20T02:34:24;1.45;;;0.65;;
73382;SDS011;61600;48.126;11.542;2023-12-20T02:36:50;1.23;;;0.70;;
73382;SDS011;61600;48.126;11.542;2023-12-20T02:39:16;1.48;;;0.70;;
73382;SDS011;61600;48.126;11.542;2023-12-20T02:41:42;1.00;;;0.55;;
73382;SDS011;61600;48.126;11.542;2023-12-20T02:44:08;0.82;;;0.40;;
73382;SDS011;61600;48.126;11.542;2023-12-20T02:46:33;1.23;;;0.52;;
73382;SDS011;61600;48.126;11.542;2023-12-20T02:48:59;0.95;;;0.50;;
73382;SDS011;61600;48.126;11.542;2023-12-20T02:51:25;1.25;;;0.55;;
73382;SDS011;61600;48.126;11.542;2023-12-20T02:53:51;1.75;;;0.50;;
73382;SDS011;61600;48.126;11.542;2023-12-20T02:56:16;0.90;;;0.50;;
73382;SDS011;61600;48.126;11.542;2023-12-20T02:58:43;1.50;;;0.55;;
73382;SDS011;61600;48.126;11.542;2023-12-20T03:01:08;2.53;;;0.50;;
73382;SDS011;61600;48.126;11.542;2023-12-20T03:03:34;0.88;;;0.50;;
73382;SDS011;61600;48.126;11.542;2023-12-20T03:06:00;2.58;;;0.60;;
73382;SDS011;61600;48.126;11.542;2023-12-20T03:08:27;1.15;;;0.60;;
73382;SDS011;61600;48.126;11.542;2023-12-20T03:10:56;1.67;;;0.75;;
73382;SDS011;61600;48.126;11.542;2023-12-20T03:13:23;1.05;;;0.60;;
73382;SDS011;61600;48.126;11.542;2023-12-20T03:15:49;1.67;;;0.80;;
73382;SDS011;61600;48.126;11.542;2023-12-20T03:18:15;0.82;;;0.43;;
73382;SDS011;61600;48.126;11.542;2023-12-20T03:20:44;0.80;;;0.60;;
73382;SDS011;61600;48.126;11.542;2023-12-20T03:23:11;1.55;;;0.50;;
73382;SDS011;61600;48.126;11.542;2023-12-20T03:28:03;1.38;;;0.60;;
73382;SDS011;61600;48.126;11.542;2023-12-20T03:30:29;1.38;;;0.60;;
73382;SDS011;61600;48.126;11.542;2023-12-20T03:32:54;2.13;;;0.70;;
73382;SDS011;61600;48.126;11.542;2023-12-20T03:35:20;0.60;;;0.47;;
73382;SDS011;61600;48.126;11.542;2023-12-20T03:37:46;2.78;;;0.68;;
73382;SDS011;61600;48.126;11.542;2023-12-20T03:40:12;1.05;;;0.40;;
73382;SDS011;61600;48.126;11.542;2023-12-20T03:42:37;2.70;;;0.40;;
73382;SDS011;61600;48.126;11.542;2023-12-20T03:45:03;1.95;;;0.82;;
73382;SDS011;61600;48.126;11.542;2023-12-20T03:47:29;4.90;;;0.40;;
73382;SDS011;61600;48.126;11.542;2023-12-20T03:49:55;1.00;;;0.50;;
73382;SDS011;61600;48.126;11.542;2023-12-20T03:52:21;1.13;;;0.57;;
73382;SDS011;61600;48.126;11.542;2023-12-20T03:54:47;0.75;;;0.40;;
73382;SDS011;61600;48.126;11.542;2023-12-20T03:57:16;1.35;;;0.50;;
73382;SDS011;61600;48.126;11.542;2023-12-20T03:59:46;2.03;;;0.60;;
73382;SDS011;61600;48.126;11.542;2023-12-20T04:02:12;1.08;;;0.60;;
73382;SDS011;61600;48.126;11.542;2023-12-20T04:04:38;0.95;;;0.40;;
73382;SDS011;61600;48.126;11.542;2023-12-20T04:07:04;0.70;;;0.40;;
73382;SDS011;61600;48.126;11.542;2023-12-20T04:09:30;1.02;;;0.57;;
73382;SDS011;61600;48.126;11.542;2023-12-20T04:11:56;2.08;;;0.73;;
73382;SDS011;61600;48.126;11.542;2023-12-20T04:14:22;0.73;;;0.30;;
73382;SDS011;61600;48.126;11.542;2023-12-20T04:16:50;1.50;;;0.50;;
73382;SDS011;61600;48.126;11.542;2023-12-20T04:19:16;1.00;;;0.50;;
73382;SDS011;61600;48.126;11.542;2023-12-20T04:21:42;0.82;;;0.47;;
73382;SDS011;61600;48.126;11.542;2023-12-20T04:24:09;1.05;;;0.40;;
73382;SDS011;61600;48.126;11.542;2023-12-20T04:26:35;0.65;;;0.50;;
73382;SDS011;61600;48.126;11.542;2023-12-20T04:29:01;0.60;;;0.47;;
73382;SDS011;61600;48.126;11.542;2023-12-20T04:31:27;2.70;;;0.47;;
73382;SDS011;61600;48.126;11.542;2023-12-20T04:33:53;2.03;;;0.60;;
73382;SDS011;61600;48.126;11.542;2023-12-20T04:36:18;1.10;;;0.60;;
73382;SDS011;61600;48.126;11.542;2023-12-20T04:38:44;1.25;;;0.70;;
73382;SDS011;61600;48.126;11.542;2023-12-20T04:41:09;1.52;;;0.63;;
73382;SDS011;61600;48.126;11.542;2023-12-20T04:43:35;1.05;;;0.55;;
73382;SDS011;61600;48.126;11.542;2023-12-20T04:46:02;1.88;;;0.82;;
73382;SDS011;61600;48.126;11.542;2023-12-20T04:48:28;1.05;;;0.50;;
73382;SDS011;61600;48.126;11.542;2023-12-20T04:50:54;1.83;;;1.08;;
73382;SDS011;61600;48.126;11.542;2023-12-20T04:53:19;0.70;;;0.52;;
73382;SDS011;61600;48.126;11.542;2023-12-20T04:55:45;1.42;;;0.70;;
73382;SDS011;61600;48.126;11.542;2023-12-20T04:58:10;2.22;;;0.80;;
73382;SDS011;61600;48.126;11.542;2023-12-20T05:00:36;1.63;;;0.73;;
73382;SDS011;61600;48.126;11.542;2023-12-20T05:03:01;1.60;;;0.90;;
73382;SDS011;61600;48.126;11.542;2023-12-20T05:05:27;2.00;;;0.90;;
73382;SDS011;61600;48.126;11.542;2023-12-20T05:07:53;2.15;;;1.17;;
73382;SDS011;61600;48.126;11.542;2023-12-20T05:10:18;1.83;;;0.77;;
73382;SDS011;61600;48.126;11.542;2023-12-20T05:12:47;3.45;;;1.55;;
73382;SDS011;61600;48.126;11.542;2023-12-20T05:15:13;3.17;;;1.10;;
73382;SDS011;61600;48.126;11.542;2023-12-20T05:17:39;1.85;;;0.80;;
73382;SDS011;61600;48.126;11.542;2023-12-20T05:20:04;3.42;;;1.60;;
73382;SDS011;61600;48.126;11.542;2023-12-20T05:22:31;4.35;;;2.08;;
73382;SDS011;61600;48.126;11.542;2023-12-20T05:24:57;2.80;;;1.40;;
73382;SDS011;61600;48.126;11.542;2023-12-20T05:27:23;3.55;;;1.50;;
73382;SDS011;61600;48.126;11.542;2023-12-20T05:29:48;3.92;;;1.60;;
73382;SDS011;61600;48.126;11.542;2023-12-20T05:32:15;2.83;;;1.20;;
73382;SDS011;61600;48.126;11.542;2023-12-20T05:34:41;2.70;;;1.10;;
73382;SDS011;61600;48.126;11.542;2023-12-20T05:37:06;3.50;;;1.58;;
73382;SDS011;61600;48.126;11.542;2023-12-20T05:39:32;3.08;;;1.33;;
73382;SDS011;61600;48.126;11.542;2023-12-20T05:41:58;1.95;;;1.15;;
73382;SDS011;61600;48.126;11.542;2023-12-20T05:44:23;2.30;;;1.13;;
73382;SDS011;61600;48.126;11.542;2023-12-20T05:46:49;3.38;;;1.40;;
73382;SDS011;61600;48.126;11.542;2023-12-20T05:49:15;2.17;;;1.00;;
73382;SDS011;61600;48.126;11.542;2023-12-20T05:51:41;1.65;;;0.80;;
73382;SDS011;61600;48.126;11.542;2023-12-20T05:54:08;2.63;;;1.35;;
73382;SDS011;61600;48.126;11.542;2023-12-20T05:59:00;2.00;;;1.02;;
73382;SDS011;61600;48.126;11.542;2023-12-20T06:01:26;1.30;;;0.80;;
73382;SDS011;61600;48.126;11.542;2023-12-20T06:03:51;2.78;;;1.30;;
73382;SDS011;61600;48.126;11.542;2023-12-20T06:06:17;2.95;;;1.13;;
73382;SDS011;61600;48.126;11.542;2023-12-20T06:08:43;3.05;;;1.27;;
73382;SDS011;61600;48.126;11.542;2023-12-20T06:11:15;3.75;;;1.38;;
73382;SDS011;61600;48.126;11.542;2023-12-20T06:13:41;3.45;;;1.17;;
73382;SDS011;61600;48.126;11.542;2023-12-20T06:16:07;1.33;;;0.73;;
73382;SDS011;61600;48.126;11.542;2023-12-20T06:18:36;2.47;;;0.73;;
73382;SDS011;61600;48.126;11.542;2023-12-20T06:21:22;3.55;;;1.70;;
73382;SDS011;61600;48.126;11.542;2023-12-20T06:23:49;5.57;;;1.52;;
73382;SDS011;61600;48.126;11.542;2023-12-20T06:26:15;4.72;;;1.88;;
73382;SDS011;61600;48.126;11.542;2023-12-20T06:28:43;2.40;;;1.20;;
73382;SDS011;61600;48.126;11.542;2023-12-20T06:31:10;1.73;;;0.80;;
73382;SDS011;61600;48.126;11.542;2023-12-20T06:33:36;2.65;;;1.30;;
73382;SDS011;61600;48.126;11.542;2023-12-20T06:36:05;2.42;;;1.10;;
73382;SDS011;61600;48.126;11.542;2023-12-20T06:38:33;1.77;;;0.90;;
73382;SDS011;61600;48.126;11.542;2023-12-20T06:41:04;2.03;;;0.98;;
73382;SDS011;61600;48.126;11.542;2023-12-20T06:43:30;3.22;;;1.85;;
73382;SDS011;61600;48.126;11.542;2023-12-20T06:45:58;2.72;;;1.30;;
73382;SDS011;61600;48.126;11.542;2023-12-20T06:48:26;3.83;;;1.38;;
73382;SDS011;61600;48.126;11.542;2023-12-20T06:50:54;3.67;;;1.85;;
73382;SDS011;61600;48.126;11.542;2023-12-20T06:53:26;2.83;;;1.40;;
73382;SDS011;61600;48.126;11.542;2023-12-20T06:55:56;2.35;;;1.15;;
73382;SDS011;61600;48.126;11.542;2023-12-20T06:58:43;3.03;;;1.20;;
73382;SDS011;61600;48.126;11.542;2023-12-20T07:01:13;3.85;;;1.30;;
73382;SDS011;61600;48.126;11.542;2023-12-20T07:03:42;1.77;;;0.85;;
73382;SDS011;61600;48.126;11.542;2023-12-20T07:06:10;1.45;;;0.85;;
73382;SDS011;61600;48.126;11.542;2023-12-20T07:08:39;3.45;;;1.00;;
73382;SDS011;61600;48.126;11.542;2023-12-20T07:11:05;2.55;;;1.25;;
73382;SDS011;61600;48.126;11.542;2023-12-20T07:13:33;1.35;;;0.70;;
73382;SDS011;61600;48.126;11.542;2023-12-20T07:16:02;1.05;;;0.50;;
73382;SDS011;61600;48.126;11.542;2023-12-20T07:18:33;2.53;;;0.75;;
73382;SDS011;61600;48.126;11.542;2023-12-20T07:21:06;1.40;;;0.57;;
73382;SDS011;61600;48.126;11.542;2023-12-20T07:23:40;1.00;;;0.60;;
73382;SDS011;61600;48.126;11.542;2023-12-20T07:26:15;2.20;;;0.30;;
73382;SDS011;61600;48.126;11.542;2023-12-20T07:28:53;2.20;;;0.93;;
73382;SDS011;61600;48.126;11.542;2023-12-20T07:31:21;1.75;;;0.57;;
73382;SDS011;61600;48.126;11.542;2023-12-20T07:33:58;2.33;;;0.65;;
73382;SDS011;61600;48.126;11.542;2023-12-20T07:36:45;1.75;;;0.90;;
73382;SDS011;61600;48.126;11.542;2023-12-20T07:39:13;0.50;;;0.43;;
73382;SDS011;61600;48.126;11.542;2023-12-20T07:41:44;0.77;;;0.60;;
73382;SDS011;61600;48.126;11.542;2023-12-20T07:44:20;1.08;;;0.70;;
73382;SDS011;61600;48.126;11.542;2023-12-20T07:46:48;3.50;;;0.63;;
73382;SDS011;61600;48.126;11.542;2023-12-20T07:49:30;1.25;;;0.60;;
73382;SDS011;61600;48.126;11.542;2023-12-20T07:51:58;1.30;;;0.60;;
73382;SDS011;61600;48.126;11.542;2023-12-20T07:58:06;1.45;;;0.68;;
73382;SDS011;61600;48.126;11.542;2023-12-20T08:00:36;3.25;;;1.10;;
73382;SDS011;61600;48.126;11.542;2023-12-20T08:03:02;1.98;;;0.75;;
73382;SDS011;61600;48.126;11.542;2023-12-20T08:05:36;0.77;;;0.47;;
73382;SDS011;61600;48.126;11.542;2023-12-20T08:08:08;2.00;;;0.80;;
73382;SDS011;61600;48.126;11.542;2023-12-20T08:14:21;1.55;;;0.70;;
73382;SDS011;61600;48.126;11.542;2023-12-20T08:24:12;0.93;;;0.47;;
73382;SDS011;61600;48.126;11.542;2023-12-20T08:26:37;1.98;;;0.70;;
73382;SDS011;61600;48.126;11.542;2023-12-20T08:29:09;2.28;;;0.90;;
73382;SDS011;61600;48.126;11.542;2023-12-20T08:31:35;1.75;;;0.68;;
73382;SDS011;61600;48.126;11.542;2023-12-20T08:34:03;1.00;;;0.50;;
73382;SDS011;61600;48.126;11.542;2023-12-20T08:36:31;1.08;;;0.52;;
73382;SDS011;61600;48.126;11.542;2023-12-20T08:38:57;3.63;;;0.75;;
73382;SDS011;61600;48.126;11.542;2023-12-20T08:41:24;1.58;;;0.50;;
73382;SDS011;61600;48.126;11.542;2023-12-20T08:44:00;1.25;;;0.55;;
73382;SDS011;61600;48.126;11.542;2023-12-20T08:46:43;2.83;;;0.75;;
73382;SDS011;61600;48.126;11.542;2023-12-20T08:49:16;0.90;;;0.80;;
73382;SDS011;61600;48.126;11.542;2023-12-20T08:51:42;1.65;;;0.80;;
73382;SDS011;61600;48.126;11.542;2023-12-20T08:54:12;1.63;;;0.50;;
73382;SDS011;61600;48.126;11.542;2023-12-20T09:00:20;1.58;;;0.75;;
73382;SDS011;61600;48.126;11.542;2023-12-20T09:02:54;1.05;;;0.70;;
73382;SDS011;61600;48.126;11.542;2023-12-20T09:05:20;0.63;;;0.40;;
73382;SDS011;61600;48.126;11.542;2023-12-20T09:07:49;0.88;;;0.50;;
73382;SDS011;61600;48.126;11.542;2023-12-20T09:10:22;0.93;;;0.52;;
73382;SDS011;61600;48.126;11.542;2023-12-20T09:12:58;2.00;;;0.82;;
73382;SDS011;61600;48.126;11.542;2023-12-20T09:15:26;1.63;;;0.65;;
73382;SDS011;61600;48.126;11.542;2023-12-20T09:17:57;0.95;;;0.60;;
73382;SDS011;61600;48.126;11.542;2023-12-20T09:20:23;1.73;;;0.70;;
73382;SDS011;61600;48.126;11.542;2023-12-20T09:22:50;1.75;;;1.17;;
73382;SDS011;61600;48.126;11.542;2023-12-20T09:25:20;1.98;;;0.90;;
73382;SDS011;61600;48.126;11.542;2023-12-20T09:27:47;0.98;;;0.57;;
73382;SDS011;61600;48.126;11.542;2023-12-20T09:30:18;1.60;;;0.80;;
73382;SDS011;61600;48.126;11.542;2023-12-20T09:32:45;0.63;;;0.28;;
73382;SDS011;61600;48.126;11.542;2023-12-20T09:35:11;0.30;;;0.30;;
73382;SDS011;61600;48.126;11.542;2023-12-20T09:37:36;0.95;;;0.50;;
73382;SDS011;61600;48.126;11.542;2023-12-20T09:40:07;0.82;;;0.47;;
73382;SDS011;61600;48.126;11.542;2023-12-20T09:42:46;1.25;;;0.63;;
73382;SDS011;61600;48.126;11.542;2023-12-20T09:45:17;0.93;;;0.60;;
73382;SDS011;61600;48.126;11.542;2023-12-20T09:47:48;1.38;;;0.60;;
73382;SDS011;61600;48.126;11.542;2023-12-20T09:50:19;1.33;;;0.60;;
73382;SDS011;61600;48.126;11.542;2023-12-20T09:52:50;1.83;;;1.27;;
73382;SDS011;61600;48.126;11.542;2023-12-20T09:55:17;0.95;;;0.63;;
73382;SDS011;61600;48.126;11.542;2023-12-20T09:57:48;0.82;;;0.57;;
73382;SDS011;61600;48.126;11.542;2023-12-20T10:00:15;3.33;;;0.60;;
73382;SDS011;61600;48.126;11.542;2023-12-20T10:02:49;1.00;;;0.70;;
73382;SDS011;61600;48.126;11.542;2023-12-20T10:05:28;3.35;;;0.88;;
73382;SDS011;61600;48.126;11.542;2023-12-20T10:07:57;1.08;;;0.77;;
73382;SDS011;61600;48.126;11.542;2023-12-20T10:10:27;2.47;;;1.08;;
73382;SDS011;61600;48.126;11.542;2023-12-20T10:13:05;0.85;;;0.55;;
73382;SDS011;61600;48.126;11.542;2023-12-20T10:15:37;4.30;;;1.05;;
73382;SDS011;61600;48.126;11.542;2023-12-20T10:18:03;1.17;;;0.50;;
73382;SDS011;61600;48.126;11.542;2023-12-20T10:20:30;2.40;;;0.80;;
73382;SDS011;61600;48.126;11.542;2023-12-20T10:22:58;1.83;;;0.90;;
73382;SDS011;61600;48.126;11.542;2023-12-20T10:25:28;1.40;;;0.52;;
73382;SDS011;61600;48.126;11.542;2023-12-20T10:28:15;1.90;;;0.88;;
73382;SDS011;61600;48.126;11.542;2023-12-20T10:30:45;2.00;;;0.70;;
73382;SDS011;61600;48.126;11.542;2023-12-20T10:33:28;1.30;;;0.43;;
73382;SDS011;61600;48.126;11.542;2023-12-20T10:35:58;1.48;;;0.70;;
73382;SDS011;61600;48.126;11.542;2023-12-20T10:38:24;1.00;;;0.63;;
73382;SDS011;61600;48.126;11.542;2023-12-20T10:40:54;0.75;;;0.50;;
73382;SDS011;61600;48.126;11.542;2023-12-20T10:43:28;1.60;;;0.85;;
73382;SDS011;61600;48.126;11.542;2023-12-20T10:45:56;1.25;;;0.82;;
73382;SDS011;61600;48.126;11.542;2023-12-20T10:48:27;2.67;;;0.95;;
73382;SDS011;61600;48.126;11.542;2023-12-20T10:50:56;1.50;;;0.63;;
73382;SDS011;61600;48.126;11.542;2023-12-20T10:53:29;1.83;;;1.02;;
73382;SDS011;61600;48.126;11.542;2023-12-20T10:55:57;2.80;;;0.90;;
73382;SDS011;61600;48.126;11.542;2023-12-20T10:58:29;1.77;;;0.55;;
73382;SDS011;61600;48.126;11.542;2023-12-20T11:01:00;1.52;;;0.80;;
73382;SDS011;61600;48.126;11.542;2023-12-20T11:03:32;1.52;;;0.70;;
73382;SDS011;61600;48.126;11.542;2023-12-20T11:06:19;1.98;;;0.80;;
73382;SDS011;61600;48.126;11.542;2023-12-20T11:08:57;3.83;;;1.20;;
73382;SDS011;61600;48.126;11.542;2023-12-20T11:17:11;1.60;;;0.80;;
73382;SDS011;61600;48.126;11.542;2023-12-20T11:22:29;1.95;;;0.88;;
73382;SDS011;61600;48.126;11.542;2023-12-20T11:25:14;2.95;;;1.33;;
73382;SDS011;61600;48.126;11.542;2023-12-20T11:27:41;3.25;;;1.23;;
73382;SDS011;61600;48.126;11.542;2023-12-20T11:30:09;1.98;;;1.13;;
73382;SDS011;61600;48.126;11.542;2023-12-20T11:32:36;2.65;;;0.90;;
73382;SDS011;61600;48.126;11.542;2023-12-20T11:37:40;1.05;;;0.60;;
73382;SDS011;61600;48.126;11.542;2023-12-20T11:40:16;3.13;;;1.30;;
73382;SDS011;61600;48.126;11.542;2023-12-20T11:42:44;4.30;;;1.33;;
73382;SDS011;61600;48.126;11.542;2023-12-20T11:53:00;2.50;;;1.30;;
73382;SDS011;61600;48.126;11.542;2023-12-20T11:55:26;2.60;;;1.38;;
73382;SDS011;61600;48.126;11.542;2023-12-20T11:57:52;2.05;;;1.05;;
73382;SDS011;61600;48.126;11.542;2023-12-20T12:00:20;2.53;;;1.30;;
73382;SDS011;61600;48.126;11.542;2023-12-20T12:02:58;3.30;;;1.58;;
73382;SDS011;61600;48.126;11.542;2023-12-20T12:05:24;2.03;;;1.10;;
73382;SDS011;61600;48.126;11.542;2023-12-20T12:07:51;2.63;;;1.33;;
73382;SDS011;61600;48.126;11.542;2023-12-20T12:10:18;2.50;;;1.05;;
73382;SDS011;61600;48.126;11.542;2023-12-20T12:12:44;2.40;;;0.90;;
73382;SDS011;61600;48.126;11.542;2023-12-20T12:15:10;1.77;;;0.90;;
73382;SDS011;61600;48.126;11.542;2023-12-20T12:17:36;3.40;;;0.70;;
73382;SDS011;61600;48.126;11.542;2023-12-20T12:20:04;3.25;;;1.40;;
73382;SDS011;61600;48.126;11.542;2023-12-20T12:22:46;1.50;;;0.90;;
73382;SDS011;61600;48.126;11.542;2023-12-20T12:25:35;0.82;;;0.60;;
73382;SDS011;61600;48.126;11.542;2023-12-20T12:28:05;2.33;;;0.98;;
73382;SDS011;61600;48.126;11.542;2023-12-20T12:30:34;1.77;;;0.90;;
73382;SDS011;61600;48.126;11.542;2023-12-20T12:33:06;2.30;;;0.90;;
73382;SDS011;61600;48.126;11.542;2023-12-20T12:35:33;2.33;;;1.00;;
73382;SDS011;61600;48.126;11.542;2023-12-20T12:38:00;4.25;;;1.08;;
73382;SDS011;61600;48.126;11.542;2023-12-20T12:40:34;4.88;;;1.02;;
73382;SDS011;61600;48.126;11.542;2023-12-20T12:43:01;2.10;;;0.90;;
73382;SDS011;61600;48.126;11.542;2023-12-20T12:45:30;2.78;;;1.63;;
73382;SDS011;61600;48.126;11.542;2023-12-20T12:47:59;2.60;;;1.08;;
73382;SDS011;61600;48.126;11.542;2023-12-20T12:50:24;2.65;;;1.23;;
73382;SDS011;61600;48.126;11.542;2023-12-20T12:52:54;1.73;;;0.80;;
73382;SDS011;61600;48.126;11.542;2023-12-20T12:55:46;2.55;;;0.90;;
73382;SDS011;61600;48.126;11.542;2023-12-20T12:58:17;2.78;;;1.02;;
73382;SDS011;61600;48.126;11.542;2023-12-20T13:01:04;2.17;;;1.00;;
73382;SDS011;61600;48.126;11.542;2023-12-20T13:03:31;4.95;;;1.00;;
73382;SDS011;61600;48.126;11.542;2023-12-20T13:05:58;1.83;;;1.05;;
73382;SDS011;61600;48.126;11.542;2023-12-20T13:08:23;1.67;;;1.00;;
73382;SDS011;61600;48.126;11.542;2023-12-20T13:10:49;1.63;;;0.85;;
73382;SDS011;61600;48.126;11.542;2023-12-20T13:13:15;0.98;;;0.47;;
73382;SDS011;61600;48.126;11.542;2023-12-20T13:15:42;2.58;;;1.08;;
73382;SDS011;61600;48.126;11.542;2023-12-20T13:18:08;3.42;;;1.70;;
73382;SDS011;61600;48.126;11.542;2023-12-20T13:20:34;1.55;;;0.77;;
73382;SDS011;61600;48.126;11.542;2023-12-20T13:23:02;1.20;;;1.00;;
73382;SDS011;61600;48.126;11.542;2023-12-20T13:25:29;3.05;;;1.25;;
73382;SDS011;61600;48.126;11.542;2023-12-20T13:27:59;2.58;;;1.30;;
73382;SDS011;61600;48.126;11.542;2023-12-20T13:30:41;1.40;;;0.60;;
73382;SDS011;61600;48.126;11.542;2023-12-20T13:33:08;0.75;;;0.45;;
73382;SDS011;61600;48.126;11.542;2023-12-20T13:35:34;1.73;;;1.05;;
73382;SDS011;61600;48.126;11.542;2023-12-20T13:38:00;2.25;;;1.02;;
73382;SDS011;61600;48.126;11.542;2023-12-20T13:40:26;3.22;;;1.30;;
73382;SDS011;61600;48.126;11.542;2023-12-20T13:42:54;2.08;;;0.80;;
73382;SDS011;61600;48.126;11.542;2023-12-20T13:45:20;4.60;;;2.00;;
73382;SDS011;61600;48.126;11.542;2023-12-20T13:47:46;3.60;;;1.50;;
73382;SDS011;61600;48.126;11.542;2023-12-20T13:50:32;3.40;;;1.13;;
73382;SDS011;61600;48.126;11.542;2023-12-20T13:52:59;1.63;;;1.05;;
73382;SDS011;61600;48.126;11.542;2023-12-20T13:55:29;2.28;;;0.70;;
73382;SDS011;61600;48.126;11.542;2023-12-20T13:57:56;3.53;;;1.50;;
73382;SDS011;61600;48.126;11.542;2023-12-20T14:00:26;2.95;;;1.10;;
73382;SDS011;61600;48.126;11.542;2023-12-20T14:02:53;3.67;;;1.45;;
73382;SDS011;61600;48.126;11.542;2023-12-20T14:05:23;3.78;;;0.80;;
73382;SDS011;61600;48.126;11.542;2023-12-20T14:07:51;3.50;;;1.40;;
73382;SDS011;61600;48.126;11.542;2023-12-20T14:10:16;2.20;;;1.20;;
73382;SDS011;61600;48.126;11.542;2023-12-20T14:12:47;6.70;;;1.15;;
73382;SDS011;61600;48.126;11.542;2023-12-20T14:15:15;2.47;;;1.35;;
73382;SDS011;61600;48.126;11.542;2023-12-20T14:17:50;1.63;;;1.02;;
73382;SDS011;61600;48.126;11.542;2023-12-20T14:20:22;2.70;;;0.98;;
73382;SDS011;61600;48.126;11.542;2023-12-20T14:22:51;4.93;;;1.00;;
73382;SDS011;61600;48.126;11.542;2023-12-20T14:25:24;3.75;;;1.55;;
73382;SDS011;61600;48.126;11.542;2023-12-20T14:28:07;1.50;;;0.90;;
73382;SDS011;61600;48.126;11.542;2023-12-20T14:30:35;7.97;;;1.33;;
73382;SDS011;61600;48.126;11.542;2023-12-20T14:33:04;4.00;;;1.30;;
73382;SDS011;61600;48.126;11.542;2023-12-20T14:35:33;2.35;;;1.30;;
73382;SDS011;61600;48.126;11.542;2023-12-20T14:38:21;3.10;;;1.50;;
73382;SDS011;61600;48.126;11.542;2023-12-20T14:40:51;2.38;;;1.13;;
73382;SDS011;61600;48.126;11.542;2023-12-20T14:43:19;1.75;;;0.75;;
73382;SDS011;61600;48.126;11.542;2023-12-20T14:45:49;5.18;;;1.48;;
73382;SDS011;61600;48.126;11.542;2023-12-20T14:48:16;2.75;;;1.30;;
73382;SDS011;61600;48.126;11.542;2023-12-20T14:50:47;1.50;;;0.82;;
73382;SDS011;61600;48.126;11.542;2023-12-20T14:53:15;2.25;;;0.95;;
73382;SDS011;61600;48.126;11.542;2023-12-20T14:55:42;6.90;;;1.75;;
73382;SDS011;61600;48.126;11.542;2023-12-20T14:58:07;3.92;;;1.25;;
73382;SDS011;61600;48.126;11.542;2023-12-20T15:00:35;3.28;;;1.45;;
73382;SDS011;61600;48.126;11.542;2023-12-20T15:03:02;5.10;;;1.13;;
73382;SDS011;61600;48.126;11.542;2023-12-20T15:05:31;4.03;;;1.30;;
73382;SDS011;61600;48.126;11.542;2023-12-20T15:07:56;4.80;;;1.50;;
73382;SDS011;61600;48.126;11.542;2023-12-20T15:10:25;4.65;;;1.77;;
73382;SDS011;61600;48.126;11.542;2023-12-20T15:12:51;2.60;;;1.42;;
73382;SDS011;61600;48.126;11.542;2023-12-20T15:15:17;5.10;;;1.25;;
73382;SDS011;61600;48.126;11.542;2023-12-20T15:17:44;1.58;;;0.77;;
73382;SDS011;61600;48.126;11.542;2023-12-20T15:20:11;4.65;;;1.23;;
73382;SDS011;61600;48.126;11.542;2023-12-20T15:22:40;3.95;;;1.48;;
73382;SDS011;61600;48.126;11.542;2023-12-20T15:25:06;1.98;;;0.60;;